AAL2184 KPHL-KMIA
Flight info
| Callsign | AAL2184 |
|---|---|
| Flight time | 2h 16m |
| Altitude | 38000 |
| Route | OOD TEBEE HAYDO TRPOD Q409 CRPLR BGBRD Q101 SKARP Y313 HOAGG BNFSH3 |
| Aircraft | A321/M-SDE3FGHIRWY/LB1 |
Departure
| Time | 2026-05-07 02:59 |
|---|---|
| Airport | Philadelphia International Airport (KPHL) |
Arrival
| Time | 2026-05-07 05:15 |
|---|---|
| Airport | Miami International Airport (KMIA) |
| Time | Latitude | Longitude | Altitude | Speed | Heading |
|---|---|---|---|---|---|
| 2026-05-07 02:22 | 39.87379 | -75.24780 | 27 ft | 0 kts | 105° |
| 2026-05-07 02:47 | 39.87381 | -75.24790 | 26 ft | 4 kts | 105° |
| 2026-05-07 02:47 | 39.87387 | -75.24819 | 30 ft | 3 kts | 104° |
| 2026-05-07 02:48 | 39.87388 | -75.24850 | 29 ft | 4 kts | 56° |
| 2026-05-07 02:48 | 39.87369 | -75.24869 | 28 ft | 4 kts | 20° |
| 2026-05-07 02:48 | 39.87344 | -75.24879 | 29 ft | 4 kts | 8° |
| 2026-05-07 02:48 | 39.87320 | -75.24884 | 28 ft | 4 kts | 42° |
| 2026-05-07 02:49 | 39.87316 | -75.24899 | 28 ft | 4 kts | 141° |
| 2026-05-07 02:49 | 39.87338 | -75.24910 | 30 ft | 3 kts | 165° |
| 2026-05-07 02:49 | 39.87341 | -75.24911 | 30 ft | 0 kts | 165° |
| 2026-05-07 02:53 | 39.87334 | -75.24909 | 29 ft | 4 kts | 165° |
| 2026-05-07 02:53 | 39.87285 | -75.24892 | 26 ft | 10 kts | 165° |
| 2026-05-07 02:53 | 39.87220 | -75.24870 | 28 ft | 7 kts | 159° |
| 2026-05-07 02:53 | 39.87207 | -75.24799 | 26 ft | 11 kts | 76° |
| 2026-05-07 02:54 | 39.87231 | -75.24681 | 30 ft | 16 kts | 75° |
| 2026-05-07 02:54 | 39.87263 | -75.24524 | 28 ft | 19 kts | 75° |
| 2026-05-07 02:54 | 39.87298 | -75.24349 | 26 ft | 21 kts | 75° |
| 2026-05-07 02:54 | 39.87321 | -75.24222 | 28 ft | 9 kts | 91° |
| 2026-05-07 02:55 | 39.87264 | -75.24172 | 27 ft | 12 kts | 154° |
| 2026-05-07 02:55 | 39.87179 | -75.24114 | 27 ft | 16 kts | 153° |
| 2026-05-07 02:55 | 39.87070 | -75.24072 | 29 ft | 17 kts | 165° |
| 2026-05-07 02:55 | 39.86950 | -75.24032 | 28 ft | 18 kts | 165° |
| 2026-05-07 02:56 | 39.86907 | -75.23956 | 26 ft | 12 kts | 77° |
| 2026-05-07 02:56 | 39.86931 | -75.23836 | 30 ft | 15 kts | 75° |
| 2026-05-07 02:56 | 39.86958 | -75.23696 | 29 ft | 17 kts | 76° |
| 2026-05-07 02:56 | 39.86986 | -75.23553 | 30 ft | 15 kts | 76° |
| 2026-05-07 02:57 | 39.87005 | -75.23449 | 26 ft | 7 kts | 90° |
| 2026-05-07 02:57 | 39.86965 | -75.23414 | 27 ft | 8 kts | 163° |
| 2026-05-07 02:57 | 39.86916 | -75.23401 | 26 ft | 6 kts | 182° |
| 2026-05-07 02:57 | 39.86899 | -75.23424 | 29 ft | 6 kts | 243° |
| 2026-05-07 02:58 | 39.86887 | -75.23486 | 26 ft | 9 kts | 256° |
| 2026-05-07 02:58 | 39.86825 | -75.23795 | 27 ft | 74 kts | 255° |
| 2026-05-07 02:58 | 39.86634 | -75.24750 | 26 ft | 140 kts | 255° |
| 2026-05-07 02:58 | 39.86360 | -75.26150 | 352 ft | 164 kts | 255° |
| 2026-05-07 02:59 | 39.86001 | -75.27536 | 1130 ft | 164 kts | 243° |
| 2026-05-07 02:59 | 39.85317 | -75.28741 | 1848 ft | 170 kts | 236° |
| 2026-05-07 02:59 | 39.84484 | -75.29982 | 2146 ft | 194 kts | 233° |
| 2026-05-07 02:59 | 39.83546 | -75.31376 | 2400 ft | 216 kts | 233° |
| 2026-05-07 03:00 | 39.82514 | -75.32947 | 2684 ft | 241 kts | 232° |
| 2026-05-07 03:00 | 39.81139 | -75.34324 | 3306 ft | 259 kts | 206° |
| 2026-05-07 03:00 | 39.79336 | -75.34660 | 4207 ft | 269 kts | 179° |
| 2026-05-07 03:00 | 39.77472 | -75.34495 | 5183 ft | 266 kts | 185° |
| 2026-05-07 03:01 | 39.75635 | -75.34582 | 6146 ft | 263 kts | 189° |
| 2026-05-07 03:01 | 39.73812 | -75.34767 | 7048 ft | 263 kts | 191° |
| 2026-05-07 03:01 | 39.71981 | -75.34967 | 7872 ft | 266 kts | 191° |
| 2026-05-07 03:01 | 39.70129 | -75.35150 | 8699 ft | 268 kts | 191° |
| 2026-05-07 03:02 | 39.68256 | -75.35311 | 9521 ft | 272 kts | 190° |
| 2026-05-07 03:02 | 39.66356 | -75.35454 | 10261 ft | 277 kts | 190° |
| 2026-05-07 03:02 | 39.64344 | -75.35598 | 10510 ft | 301 kts | 189° |
| 2026-05-07 03:02 | 39.62170 | -75.35745 | 10691 ft | 325 kts | 189° |
| 2026-05-07 03:03 | 39.59872 | -75.35888 | 10960 ft | 343 kts | 188° |
| 2026-05-07 03:03 | 39.57465 | -75.36021 | 11571 ft | 349 kts | 188° |
| 2026-05-07 03:03 | 39.55029 | -75.36147 | 11949 ft | 352 kts | 188° |
| 2026-05-07 03:03 | 39.52571 | -75.36274 | 12606 ft | 355 kts | 188° |
| 2026-05-07 03:04 | 39.50090 | -75.36406 | 13326 ft | 359 kts | 189° |
| 2026-05-07 03:04 | 39.47579 | -75.36546 | 14010 ft | 362 kts | 189° |
| 2026-05-07 03:04 | 39.45045 | -75.36689 | 14653 ft | 366 kts | 189° |
| 2026-05-07 03:04 | 39.42493 | -75.36835 | 15286 ft | 370 kts | 189° |
| 2026-05-07 03:05 | 39.39904 | -75.36983 | 15924 ft | 374 kts | 190° |
| 2026-05-07 03:05 | 39.37289 | -75.37133 | 16556 ft | 378 kts | 190° |
| 2026-05-07 03:05 | 39.34646 | -75.37282 | 17174 ft | 382 kts | 190° |
| 2026-05-07 03:05 | 39.31977 | -75.37431 | 17747 ft | 386 kts | 190° |
| 2026-05-07 03:06 | 39.29274 | -75.37583 | 18309 ft | 391 kts | 191° |
| 2026-05-07 03:06 | 39.26543 | -75.37740 | 18846 ft | 394 kts | 191° |
| 2026-05-07 03:06 | 39.23787 | -75.37898 | 19391 ft | 397 kts | 192° |
| 2026-05-07 03:06 | 39.21016 | -75.38061 | 19933 ft | 399 kts | 193° |
| 2026-05-07 03:07 | 39.18283 | -75.38484 | 20451 ft | 396 kts | 197° |
| 2026-05-07 03:07 | 39.15546 | -75.38973 | 20988 ft | 399 kts | 198° |
| 2026-05-07 03:07 | 39.12787 | -75.39470 | 21498 ft | 401 kts | 198° |
| 2026-05-07 03:07 | 39.10014 | -75.39969 | 21986 ft | 403 kts | 198° |
| 2026-05-07 03:08 | 39.07223 | -75.40470 | 22428 ft | 407 kts | 198° |
| 2026-05-07 03:08 | 39.04405 | -75.40973 | 22901 ft | 410 kts | 198° |
| 2026-05-07 03:08 | 39.01568 | -75.41477 | 23385 ft | 413 kts | 199° |
| 2026-05-07 03:08 | 38.98717 | -75.41987 | 23793 ft | 415 kts | 199° |
| 2026-05-07 03:09 | 38.95847 | -75.42499 | 24202 ft | 417 kts | 199° |
| 2026-05-07 03:09 | 38.92969 | -75.43007 | 24649 ft | 419 kts | 199° |
| 2026-05-07 03:09 | 38.90076 | -75.43514 | 25096 ft | 420 kts | 199° |
| 2026-05-07 03:09 | 38.87172 | -75.44024 | 25440 ft | 422 kts | 198° |
| 2026-05-07 03:10 | 38.84258 | -75.44529 | 25789 ft | 424 kts | 198° |
| 2026-05-07 03:10 | 38.81327 | -75.45042 | 26143 ft | 426 kts | 198° |
| 2026-05-07 03:10 | 38.78390 | -75.45561 | 26522 ft | 427 kts | 199° |
| 2026-05-07 03:10 | 38.75439 | -75.46086 | 26905 ft | 429 kts | 199° |
| 2026-05-07 03:11 | 38.72479 | -75.46616 | 27288 ft | 431 kts | 199° |
| 2026-05-07 03:11 | 38.69504 | -75.47148 | 27673 ft | 433 kts | 199° |
| 2026-05-07 03:11 | 38.66517 | -75.47678 | 28028 ft | 434 kts | 199° |
| 2026-05-07 03:11 | 38.63517 | -75.48208 | 28388 ft | 436 kts | 198° |
| 2026-05-07 03:12 | 38.60509 | -75.48734 | 28828 ft | 436 kts | 198° |
| 2026-05-07 03:12 | 38.57511 | -75.49254 | 29332 ft | 434 kts | 198° |
| 2026-05-07 03:12 | 38.54530 | -75.49770 | 29855 ft | 431 kts | 198° |
| 2026-05-07 03:12 | 38.51565 | -75.50285 | 30304 ft | 429 kts | 199° |
| 2026-05-07 03:13 | 38.48605 | -75.50802 | 30697 ft | 429 kts | 199° |
| 2026-05-07 03:13 | 38.45651 | -75.51322 | 31073 ft | 428 kts | 199° |
| 2026-05-07 03:13 | 38.42699 | -75.51846 | 31358 ft | 429 kts | 199° |
| 2026-05-07 03:13 | 38.39735 | -75.52375 | 31654 ft | 431 kts | 199° |
| 2026-05-07 03:14 | 38.36776 | -75.52958 | 31984 ft | 426 kts | 203° |
| 2026-05-07 03:14 | 38.33986 | -75.54012 | 32330 ft | 413 kts | 212° |
| 2026-05-07 03:14 | 38.29146 | -75.57510 | 33071 ft | 394 kts | 224° |
| 2026-05-07 03:15 | 38.26893 | -75.59487 | 33474 ft | 393 kts | 225° |
| 2026-05-07 03:15 | 38.24646 | -75.61452 | 33877 ft | 391 kts | 225° |
| 2026-05-07 03:15 | 38.22403 | -75.63405 | 34187 ft | 390 kts | 225° |
| 2026-05-07 03:15 | 38.20159 | -75.65356 | 34463 ft | 391 kts | 225° |
| 2026-05-07 03:16 | 38.17913 | -75.67312 | 34753 ft | 391 kts | 226° |
| 2026-05-07 03:16 | 38.15668 | -75.69266 | 35070 ft | 391 kts | 226° |
| 2026-05-07 03:16 | 38.13425 | -75.71214 | 35404 ft | 390 kts | 226° |
| 2026-05-07 03:16 | 38.11187 | -75.73152 | 35742 ft | 389 kts | 226° |
| 2026-05-07 03:17 | 38.08953 | -75.75081 | 36089 ft | 387 kts | 227° |
| 2026-05-07 03:17 | 38.06731 | -75.77003 | 36414 ft | 386 kts | 227° |
| 2026-05-07 03:17 | 38.04517 | -75.78923 | 36768 ft | 385 kts | 227° |
| 2026-05-07 03:17 | 38.02317 | -75.80830 | 37092 ft | 382 kts | 228° |
| 2026-05-07 03:18 | 38.00127 | -75.82727 | 37369 ft | 381 kts | 228° |
| 2026-05-07 03:18 | 37.97935 | -75.84626 | 37628 ft | 381 kts | 228° |
| 2026-05-07 03:18 | 37.95744 | -75.86516 | 37864 ft | 381 kts | 229° |
| 2026-05-07 03:19 | 37.91394 | -75.90259 | 37915 ft | 379 kts | 229° |
| 2026-05-07 03:19 | 37.87004 | -75.94031 | 37907 ft | 379 kts | 229° |
| 2026-05-07 03:20 | 37.82649 | -75.97777 | 37906 ft | 379 kts | 229° |
| 2026-05-07 03:20 | 37.78316 | -76.01492 | 37906 ft | 380 kts | 229° |
| 2026-05-07 03:21 | 37.73936 | -76.05256 | 37918 ft | 381 kts | 229° |
| 2026-05-07 03:21 | 37.69548 | -76.09020 | 37918 ft | 382 kts | 229° |
| 2026-05-07 03:22 | 37.65147 | -76.12781 | 37934 ft | 382 kts | 229° |
| 2026-05-07 03:22 | 37.60506 | -76.16240 | 37953 ft | 404 kts | 217° |
| 2026-05-07 03:22 | 37.57748 | -76.17286 | 37947 ft | 426 kts | 207° |
| 2026-05-07 03:23 | 37.54817 | -76.17944 | 37952 ft | 428 kts | 206° |
| 2026-05-07 03:23 | 37.48946 | -76.19226 | 37956 ft | 428 kts | 206° |
| 2026-05-07 03:24 | 37.43082 | -76.20515 | 37954 ft | 427 kts | 206° |
| 2026-05-07 03:24 | 37.37223 | -76.21814 | 37908 ft | 427 kts | 206° |
| 2026-05-07 03:25 | 37.31363 | -76.23118 | 37931 ft | 428 kts | 206° |
| 2026-05-07 03:25 | 37.25494 | -76.24428 | 37943 ft | 429 kts | 206° |
| 2026-05-07 03:26 | 37.19611 | -76.25733 | 37951 ft | 429 kts | 206° |
| 2026-05-07 03:26 | 37.13727 | -76.27026 | 37905 ft | 429 kts | 206° |
| 2026-05-07 03:27 | 37.07836 | -76.28317 | 37917 ft | 430 kts | 206° |
| 2026-05-07 03:27 | 37.01936 | -76.29615 | 37933 ft | 431 kts | 206° |
| 2026-05-07 03:28 | 36.96028 | -76.30919 | 37962 ft | 431 kts | 206° |
| 2026-05-07 03:28 | 36.90121 | -76.32215 | 37929 ft | 431 kts | 206° |
| 2026-05-07 03:29 | 36.84207 | -76.33511 | 37942 ft | 432 kts | 206° |
| 2026-05-07 03:29 | 36.78271 | -76.34810 | 37965 ft | 433 kts | 206° |
| 2026-05-07 03:30 | 36.72336 | -76.36113 | 37965 ft | 434 kts | 206° |
| 2026-05-07 03:30 | 36.66390 | -76.37413 | 37943 ft | 434 kts | 206° |
| 2026-05-07 03:31 | 36.60438 | -76.38711 | 37950 ft | 434 kts | 206° |
| 2026-05-07 03:31 | 36.54479 | -76.40007 | 37965 ft | 435 kts | 206° |
| 2026-05-07 03:32 | 36.48510 | -76.41298 | 37975 ft | 436 kts | 206° |
| 2026-05-07 03:32 | 36.42534 | -76.42593 | 37940 ft | 436 kts | 205° |
| 2026-05-07 03:33 | 36.36548 | -76.43888 | 37958 ft | 437 kts | 205° |
| 2026-05-07 03:33 | 36.30550 | -76.45187 | 37972 ft | 438 kts | 205° |
| 2026-05-07 03:34 | 36.24551 | -76.46473 | 37992 ft | 438 kts | 205° |
| 2026-05-07 03:34 | 36.18550 | -76.47761 | 37981 ft | 438 kts | 205° |
| 2026-05-07 03:35 | 36.12546 | -76.49056 | 37993 ft | 438 kts | 205° |
| 2026-05-07 03:35 | 36.06533 | -76.50351 | 38003 ft | 439 kts | 205° |
| 2026-05-07 03:36 | 36.00553 | -76.51632 | 38021 ft | 439 kts | 205° |
| 2026-05-07 03:36 | 35.94543 | -76.52916 | 37982 ft | 438 kts | 205° |
| 2026-05-07 03:37 | 35.88720 | -76.54632 | 37987 ft | 417 kts | 216° |
| 2026-05-07 03:37 | 35.86127 | -76.56084 | 37990 ft | 405 kts | 221° |
| 2026-05-07 03:37 | 35.83604 | -76.57660 | 37983 ft | 406 kts | 221° |
| 2026-05-07 03:38 | 35.78568 | -76.60791 | 37992 ft | 407 kts | 221° |
| 2026-05-07 03:38 | 35.73503 | -76.63918 | 37977 ft | 408 kts | 221° |
| 2026-05-07 03:39 | 35.68415 | -76.67041 | 37981 ft | 409 kts | 221° |
| 2026-05-07 03:39 | 35.63325 | -76.70176 | 37988 ft | 410 kts | 221° |
| 2026-05-07 03:40 | 35.58217 | -76.73306 | 37998 ft | 410 kts | 221° |
| 2026-05-07 03:40 | 35.53111 | -76.76434 | 38003 ft | 410 kts | 221° |
| 2026-05-07 03:41 | 35.48000 | -76.79565 | 37967 ft | 411 kts | 220° |
| 2026-05-07 03:41 | 35.42867 | -76.82709 | 37971 ft | 413 kts | 220° |
| 2026-05-07 03:42 | 35.37708 | -76.85850 | 37982 ft | 414 kts | 220° |
| 2026-05-07 03:42 | 35.32542 | -76.88978 | 38002 ft | 415 kts | 220° |
| 2026-05-07 03:43 | 35.28244 | -76.91587 | 38003 ft | 414 kts | 220° |
| 2026-05-07 03:43 | 35.23097 | -76.94731 | 38008 ft | 413 kts | 221° |
| 2026-05-07 03:44 | 35.17992 | -76.97918 | 38012 ft | 412 kts | 221° |
| 2026-05-07 03:44 | 35.12906 | -77.01129 | 38036 ft | 411 kts | 221° |
| 2026-05-07 03:45 | 35.07815 | -77.04333 | 38037 ft | 412 kts | 221° |
| 2026-05-07 03:45 | 35.02712 | -77.07525 | 38013 ft | 413 kts | 221° |
| 2026-05-07 03:46 | 34.97592 | -77.10713 | 38022 ft | 414 kts | 221° |
| 2026-05-07 03:46 | 34.92454 | -77.13909 | 38023 ft | 415 kts | 221° |
| 2026-05-07 03:47 | 34.87312 | -77.17107 | 38030 ft | 415 kts | 221° |
| 2026-05-07 03:47 | 34.82161 | -77.20311 | 38010 ft | 415 kts | 221° |
| 2026-05-07 03:48 | 34.77007 | -77.23511 | 37994 ft | 417 kts | 220° |
| 2026-05-07 03:48 | 34.71836 | -77.26710 | 38006 ft | 417 kts | 220° |
| 2026-05-07 03:49 | 34.66662 | -77.29912 | 38021 ft | 418 kts | 220° |
| 2026-05-07 03:49 | 34.61485 | -77.33113 | 38031 ft | 418 kts | 220° |
| 2026-05-07 03:50 | 34.56304 | -77.36313 | 38016 ft | 418 kts | 220° |
| 2026-05-07 03:50 | 34.51116 | -77.39504 | 38016 ft | 419 kts | 220° |
| 2026-05-07 03:50 | 34.48406 | -77.40850 | 38020 ft | 435 kts | 211° |
| 2026-05-07 03:51 | 34.45398 | -77.41699 | 38023 ft | 452 kts | 202° |
| 2026-05-07 03:51 | 34.39184 | -77.42897 | 38031 ft | 452 kts | 203° |
| 2026-05-07 03:52 | 34.32968 | -77.44108 | 37992 ft | 452 kts | 203° |
| 2026-05-07 03:52 | 34.26755 | -77.45328 | 38020 ft | 452 kts | 203° |
| 2026-05-07 03:53 | 34.20536 | -77.46540 | 38036 ft | 453 kts | 203° |
| 2026-05-07 03:53 | 34.14317 | -77.47747 | 38044 ft | 453 kts | 203° |
| 2026-05-07 03:54 | 34.08092 | -77.48962 | 38011 ft | 453 kts | 203° |
| 2026-05-07 03:54 | 34.01873 | -77.50164 | 38035 ft | 453 kts | 203° |
| 2026-05-07 03:55 | 33.95655 | -77.51375 | 38049 ft | 453 kts | 203° |
| 2026-05-07 03:55 | 33.89436 | -77.52582 | 38051 ft | 452 kts | 203° |
| 2026-05-07 03:56 | 33.83222 | -77.53790 | 38022 ft | 452 kts | 203° |
| 2026-05-07 03:56 | 33.76956 | -77.54996 | 38046 ft | 453 kts | 203° |
| 2026-05-07 03:57 | 33.70731 | -77.56195 | 38049 ft | 453 kts | 203° |
| 2026-05-07 03:57 | 33.64541 | -77.57384 | 38056 ft | 454 kts | 203° |
| 2026-05-07 03:58 | 33.58314 | -77.58609 | 38019 ft | 448 kts | 206° |
| 2026-05-07 03:58 | 33.52403 | -77.60595 | 38048 ft | 440 kts | 210° |
| 2026-05-07 03:59 | 33.46537 | -77.62661 | 38067 ft | 439 kts | 210° |
| 2026-05-07 03:59 | 33.40670 | -77.64716 | 38072 ft | 439 kts | 210° |
| 2026-05-07 04:00 | 33.34803 | -77.66763 | 38068 ft | 439 kts | 210° |
| 2026-05-07 04:00 | 33.28947 | -77.68803 | 38042 ft | 439 kts | 208° |
| 2026-05-07 04:01 | 33.23077 | -77.70842 | 38063 ft | 439 kts | 208° |
| 2026-05-07 04:01 | 33.17212 | -77.72884 | 38068 ft | 439 kts | 208° |
| 2026-05-07 04:02 | 33.11336 | -77.74927 | 38074 ft | 440 kts | 208° |
| 2026-05-07 04:02 | 33.05460 | -77.76965 | 38044 ft | 440 kts | 207° |
| 2026-05-07 04:03 | 32.99578 | -77.78997 | 38053 ft | 440 kts | 207° |
| 2026-05-07 04:03 | 32.93695 | -77.81032 | 38072 ft | 441 kts | 207° |
| 2026-05-07 04:04 | 32.87812 | -77.83074 | 38072 ft | 441 kts | 207° |
| 2026-05-07 04:04 | 32.81915 | -77.85107 | 38075 ft | 441 kts | 207° |
| 2026-05-07 04:05 | 32.76020 | -77.87137 | 38082 ft | 441 kts | 207° |
| 2026-05-07 04:05 | 32.70164 | -77.89151 | 38081 ft | 441 kts | 207° |
| 2026-05-07 04:06 | 32.64266 | -77.91168 | 38081 ft | 442 kts | 207° |
| 2026-05-07 04:06 | 32.58288 | -77.93110 | 38080 ft | 443 kts | 206° |
| 2026-05-07 04:07 | 32.52375 | -77.94983 | 38069 ft | 443 kts | 206° |
| 2026-05-07 04:07 | 32.46383 | -77.96900 | 38074 ft | 443 kts | 205° |
| 2026-05-07 04:08 | 32.40485 | -77.98821 | 38086 ft | 442 kts | 205° |
| 2026-05-07 04:08 | 32.34551 | -78.00749 | 38090 ft | 442 kts | 205° |
| 2026-05-07 04:09 | 32.28617 | -78.02667 | 38071 ft | 442 kts | 205° |
| 2026-05-07 04:09 | 32.22682 | -78.04581 | 38080 ft | 442 kts | 205° |
| 2026-05-07 04:10 | 32.16737 | -78.06497 | 38084 ft | 443 kts | 205° |
| 2026-05-07 04:10 | 32.10790 | -78.08401 | 38092 ft | 443 kts | 204° |
| 2026-05-07 04:11 | 32.04831 | -78.10305 | 38068 ft | 443 kts | 204° |
| 2026-05-07 04:11 | 31.98876 | -78.12207 | 38072 ft | 444 kts | 204° |
| 2026-05-07 04:12 | 31.92911 | -78.14118 | 38082 ft | 444 kts | 204° |
| 2026-05-07 04:12 | 31.86937 | -78.16026 | 38088 ft | 445 kts | 204° |
| 2026-05-07 04:13 | 31.80962 | -78.17931 | 38097 ft | 445 kts | 204° |
| 2026-05-07 04:13 | 31.74987 | -78.19841 | 38085 ft | 445 kts | 204° |
| 2026-05-07 04:14 | 31.69009 | -78.21745 | 38095 ft | 445 kts | 204° |
| 2026-05-07 04:14 | 31.63022 | -78.23650 | 38102 ft | 445 kts | 204° |
| 2026-05-07 04:15 | 31.57042 | -78.25550 | 38098 ft | 445 kts | 204° |
| 2026-05-07 04:15 | 31.51057 | -78.27441 | 38081 ft | 445 kts | 204° |
| 2026-05-07 04:16 | 31.45073 | -78.29349 | 38096 ft | 445 kts | 204° |
| 2026-05-07 04:16 | 31.39121 | -78.31337 | 38098 ft | 445 kts | 205° |
| 2026-05-07 04:17 | 31.33213 | -78.33344 | 38105 ft | 445 kts | 205° |
| 2026-05-07 04:17 | 31.27261 | -78.35346 | 38105 ft | 445 kts | 204° |
| 2026-05-07 04:18 | 31.21301 | -78.37335 | 38096 ft | 446 kts | 204° |
| 2026-05-07 04:18 | 31.15335 | -78.39322 | 38103 ft | 446 kts | 204° |
| 2026-05-07 04:19 | 31.09369 | -78.41310 | 38107 ft | 446 kts | 204° |
| 2026-05-07 04:19 | 31.03399 | -78.43292 | 38109 ft | 446 kts | 204° |
| 2026-05-07 04:20 | 30.97425 | -78.45269 | 38087 ft | 446 kts | 204° |
| 2026-05-07 04:20 | 30.91449 | -78.47245 | 38094 ft | 446 kts | 204° |
| 2026-05-07 04:21 | 30.82497 | -78.50224 | 38103 ft | 446 kts | 204° |
| 2026-05-07 04:21 | 30.76528 | -78.52200 | 38115 ft | 446 kts | 204° |
| 2026-05-07 04:22 | 30.70550 | -78.54173 | 38084 ft | 447 kts | 204° |
| 2026-05-07 04:22 | 30.64568 | -78.56146 | 38097 ft | 447 kts | 204° |
| 2026-05-07 04:23 | 30.58573 | -78.58115 | 38096 ft | 448 kts | 204° |
| 2026-05-07 04:23 | 30.52570 | -78.60093 | 38111 ft | 449 kts | 204° |
| 2026-05-07 04:24 | 30.46605 | -78.62059 | 38117 ft | 449 kts | 204° |
| 2026-05-07 04:24 | 30.40587 | -78.64031 | 38097 ft | 450 kts | 204° |
| 2026-05-07 04:25 | 30.34566 | -78.66003 | 38104 ft | 450 kts | 205° |
| 2026-05-07 04:25 | 30.28527 | -78.67982 | 38117 ft | 451 kts | 204° |
| 2026-05-07 04:26 | 30.22486 | -78.69954 | 38114 ft | 451 kts | 205° |
| 2026-05-07 04:26 | 30.16447 | -78.71926 | 38120 ft | 451 kts | 205° |
| 2026-05-07 04:27 | 30.10406 | -78.73892 | 38131 ft | 451 kts | 204° |
| 2026-05-07 04:27 | 30.04366 | -78.75859 | 38130 ft | 451 kts | 205° |
| 2026-05-07 04:28 | 29.98331 | -78.77829 | 38129 ft | 451 kts | 205° |
| 2026-05-07 04:28 | 29.92290 | -78.79788 | 38129 ft | 451 kts | 204° |
| 2026-05-07 04:29 | 29.86246 | -78.81745 | 38114 ft | 451 kts | 205° |
| 2026-05-07 04:29 | 29.81218 | -78.83374 | 38125 ft | 452 kts | 205° |
| 2026-05-07 04:30 | 29.74980 | -78.84767 | 38123 ft | 463 kts | 195° |
| 2026-05-07 04:30 | 29.68580 | -78.85615 | 38131 ft | 463 kts | 195° |
| 2026-05-07 04:31 | 29.62186 | -78.86464 | 38105 ft | 463 kts | 195° |
| 2026-05-07 04:31 | 29.55791 | -78.87326 | 38115 ft | 463 kts | 195° |
| 2026-05-07 04:32 | 29.49385 | -78.88186 | 38129 ft | 463 kts | 195° |
| 2026-05-07 04:32 | 29.42987 | -78.89054 | 38130 ft | 463 kts | 195° |
| 2026-05-07 04:33 | 29.36579 | -78.89913 | 38128 ft | 463 kts | 195° |
| 2026-05-07 04:33 | 29.30179 | -78.90771 | 38118 ft | 463 kts | 195° |
| 2026-05-07 04:34 | 29.23772 | -78.91626 | 38123 ft | 464 kts | 195° |
| 2026-05-07 04:34 | 29.17365 | -78.92480 | 38127 ft | 464 kts | 195° |
| 2026-05-07 04:35 | 29.10954 | -78.93340 | 38131 ft | 464 kts | 195° |
| 2026-05-07 04:35 | 29.04584 | -78.94191 | 38108 ft | 464 kts | 194° |
| 2026-05-07 04:36 | 28.98167 | -78.95043 | 38115 ft | 465 kts | 194° |
| 2026-05-07 04:36 | 28.91741 | -78.95896 | 38122 ft | 465 kts | 194° |
| 2026-05-07 04:37 | 28.85311 | -78.96756 | 38131 ft | 465 kts | 194° |
| 2026-05-07 04:37 | 28.78874 | -78.97611 | 38112 ft | 466 kts | 194° |
| 2026-05-07 04:38 | 28.72432 | -78.98459 | 38121 ft | 466 kts | 194° |
| 2026-05-07 04:38 | 28.65990 | -78.99312 | 38128 ft | 466 kts | 194° |
| 2026-05-07 04:39 | 28.59543 | -79.00167 | 38135 ft | 467 kts | 194° |
| 2026-05-07 04:39 | 28.53089 | -79.01014 | 38137 ft | 467 kts | 194° |
| 2026-05-07 04:40 | 28.46640 | -79.01868 | 38120 ft | 467 kts | 194° |
| 2026-05-07 04:40 | 28.40183 | -79.02724 | 38128 ft | 467 kts | 194° |
| 2026-05-07 04:41 | 28.33766 | -79.03761 | 38136 ft | 460 kts | 202° |
| 2026-05-07 04:41 | 28.27727 | -79.05944 | 38139 ft | 455 kts | 206° |
| 2026-05-07 04:42 | 28.21706 | -79.08192 | 38119 ft | 455 kts | 205° |
| 2026-05-07 04:42 | 28.15686 | -79.10434 | 38131 ft | 456 kts | 205° |
| 2026-05-07 04:43 | 28.09665 | -79.12679 | 38135 ft | 456 kts | 205° |
| 2026-05-07 04:43 | 28.03674 | -79.14904 | 38135 ft | 456 kts | 205° |
| 2026-05-07 04:44 | 27.97647 | -79.17144 | 38140 ft | 456 kts | 205° |
| 2026-05-07 04:44 | 27.91614 | -79.19385 | 38125 ft | 456 kts | 205° |
| 2026-05-07 04:45 | 27.85582 | -79.21622 | 38133 ft | 456 kts | 205° |
| 2026-05-07 04:45 | 27.79551 | -79.23858 | 38137 ft | 456 kts | 205° |
| 2026-05-07 04:46 | 27.73513 | -79.26095 | 38143 ft | 456 kts | 205° |
| 2026-05-07 04:46 | 27.67477 | -79.28319 | 38143 ft | 457 kts | 205° |
| 2026-05-07 04:47 | 27.61437 | -79.30544 | 38128 ft | 456 kts | 205° |
| 2026-05-07 04:47 | 27.55399 | -79.32774 | 38132 ft | 457 kts | 205° |
| 2026-05-07 04:48 | 27.49354 | -79.34996 | 38133 ft | 457 kts | 204° |
| 2026-05-07 04:48 | 27.46332 | -79.36103 | 37989 ft | 457 kts | 204° |
| 2026-05-07 04:48 | 27.43308 | -79.37209 | 37723 ft | 456 kts | 204° |
| 2026-05-07 04:49 | 27.40289 | -79.38313 | 37467 ft | 456 kts | 204° |
| 2026-05-07 04:49 | 27.37272 | -79.39420 | 37209 ft | 457 kts | 204° |
| 2026-05-07 04:49 | 27.34247 | -79.40533 | 36958 ft | 458 kts | 204° |
| 2026-05-07 04:49 | 27.31216 | -79.41645 | 36438 ft | 459 kts | 204° |
| 2026-05-07 04:50 | 27.28170 | -79.42765 | 35731 ft | 462 kts | 204° |
| 2026-05-07 04:50 | 27.25097 | -79.43895 | 34993 ft | 466 kts | 204° |
| 2026-05-07 04:50 | 27.22004 | -79.45032 | 34235 ft | 470 kts | 204° |
| 2026-05-07 04:50 | 27.18880 | -79.46181 | 33277 ft | 476 kts | 204° |
| 2026-05-07 04:51 | 27.15719 | -79.47338 | 32396 ft | 479 kts | 204° |
| 2026-05-07 04:51 | 27.12543 | -79.48496 | 31473 ft | 483 kts | 204° |
| 2026-05-07 04:51 | 27.09335 | -79.49664 | 30494 ft | 487 kts | 204° |
| 2026-05-07 04:51 | 27.06095 | -79.50842 | 29353 ft | 492 kts | 203° |
| 2026-05-07 04:52 | 27.02830 | -79.52028 | 28268 ft | 494 kts | 203° |
| 2026-05-07 04:52 | 26.99551 | -79.53221 | 27091 ft | 498 kts | 203° |
| 2026-05-07 04:52 | 26.96239 | -79.54428 | 25829 ft | 503 kts | 202° |
| 2026-05-07 04:52 | 26.92961 | -79.55625 | 24994 ft | 500 kts | 202° |
| 2026-05-07 04:53 | 26.89676 | -79.56820 | 24193 ft | 492 kts | 202° |
| 2026-05-07 04:53 | 26.86470 | -79.57979 | 23314 ft | 477 kts | 202° |
| 2026-05-07 04:53 | 26.83351 | -79.59100 | 22516 ft | 467 kts | 202° |
| 2026-05-07 04:53 | 26.80280 | -79.60207 | 21755 ft | 462 kts | 201° |
| 2026-05-07 04:54 | 26.77234 | -79.61306 | 20980 ft | 458 kts | 201° |
| 2026-05-07 04:54 | 26.74219 | -79.62390 | 20228 ft | 453 kts | 201° |
| 2026-05-07 04:54 | 26.71246 | -79.63459 | 19868 ft | 440 kts | 200° |
| 2026-05-07 04:54 | 26.68393 | -79.64482 | 19751 ft | 422 kts | 200° |
| 2026-05-07 04:55 | 26.65649 | -79.65469 | 19633 ft | 407 kts | 201° |
| 2026-05-07 04:55 | 26.62997 | -79.66421 | 19504 ft | 393 kts | 201° |
| 2026-05-07 04:55 | 26.60415 | -79.67345 | 19061 ft | 388 kts | 200° |
| 2026-05-07 04:55 | 26.57859 | -79.68248 | 18512 ft | 383 kts | 200° |
| 2026-05-07 04:56 | 26.55324 | -79.69136 | 17898 ft | 379 kts | 199° |
| 2026-05-07 04:56 | 26.52814 | -79.70010 | 17403 ft | 377 kts | 199° |
| 2026-05-07 04:56 | 26.50316 | -79.70879 | 16904 ft | 375 kts | 199° |
| 2026-05-07 04:56 | 26.47856 | -79.71813 | 16407 ft | 372 kts | 205° |
| 2026-05-07 04:57 | 26.45608 | -79.73200 | 15923 ft | 369 kts | 217° |
| 2026-05-07 04:57 | 26.43669 | -79.75051 | 15654 ft | 367 kts | 228° |
| 2026-05-07 04:57 | 26.41949 | -79.77150 | 15369 ft | 367 kts | 229° |
| 2026-05-07 04:57 | 26.40225 | -79.79250 | 15064 ft | 367 kts | 229° |
| 2026-05-07 04:58 | 26.38519 | -79.81359 | 14769 ft | 365 kts | 232° |
| 2026-05-07 04:58 | 26.37039 | -79.83641 | 14482 ft | 362 kts | 237° |
| 2026-05-07 04:58 | 26.35615 | -79.85912 | 14309 ft | 351 kts | 237° |
| 2026-05-07 04:58 | 26.34246 | -79.88100 | 14195 ft | 338 kts | 237° |
| 2026-05-07 04:59 | 26.32924 | -79.90213 | 14039 ft | 328 kts | 237° |
| 2026-05-07 04:59 | 26.31631 | -79.92282 | 13848 ft | 325 kts | 237° |
| 2026-05-07 04:59 | 26.30338 | -79.94349 | 13614 ft | 324 kts | 237° |
| 2026-05-07 04:59 | 26.29050 | -79.96406 | 13397 ft | 324 kts | 236° |
| 2026-05-07 05:00 | 26.27762 | -79.98464 | 13186 ft | 323 kts | 236° |
| 2026-05-07 05:00 | 26.26360 | -80.00407 | 12951 ft | 323 kts | 224° |
| 2026-05-07 05:00 | 26.24597 | -80.01884 | 12755 ft | 322 kts | 209° |
| 2026-05-07 05:00 | 26.22535 | -80.02825 | 12536 ft | 320 kts | 193° |
| 2026-05-07 05:01 | 26.20359 | -80.03330 | 12335 ft | 319 kts | 189° |
| 2026-05-07 05:01 | 26.18186 | -80.03816 | 12126 ft | 318 kts | 189° |
| 2026-05-07 05:01 | 26.16023 | -80.04304 | 11912 ft | 317 kts | 190° |
| 2026-05-07 05:01 | 26.13869 | -80.04797 | 11701 ft | 315 kts | 190° |
| 2026-05-07 05:02 | 26.11730 | -80.05291 | 11484 ft | 314 kts | 190° |
| 2026-05-07 05:02 | 26.09597 | -80.05785 | 11270 ft | 312 kts | 189° |
| 2026-05-07 05:02 | 26.07472 | -80.06277 | 11069 ft | 311 kts | 189° |
| 2026-05-07 05:02 | 26.05364 | -80.06778 | 10828 ft | 309 kts | 190° |
| 2026-05-07 05:03 | 26.03271 | -80.07313 | 10565 ft | 308 kts | 191° |
| 2026-05-07 05:03 | 26.01198 | -80.07861 | 10306 ft | 306 kts | 191° |
| 2026-05-07 05:03 | 25.99132 | -80.08411 | 10055 ft | 304 kts | 191° |
| 2026-05-07 05:03 | 25.97080 | -80.08953 | 9786 ft | 302 kts | 191° |
| 2026-05-07 05:04 | 25.95042 | -80.09486 | 9527 ft | 301 kts | 191° |
| 2026-05-07 05:04 | 25.93052 | -80.10216 | 9270 ft | 302 kts | 204° |
| 2026-05-07 05:04 | 25.91296 | -80.11495 | 9020 ft | 303 kts | 220° |
| 2026-05-07 05:04 | 25.89843 | -80.13187 | 8762 ft | 303 kts | 228° |
| 2026-05-07 05:05 | 25.88664 | -80.15118 | 8496 ft | 302 kts | 244° |
| 2026-05-07 05:05 | 25.87994 | -80.17318 | 8234 ft | 301 kts | 260° |
| 2026-05-07 05:05 | 25.87838 | -80.19630 | 7980 ft | 300 kts | 269° |
| 2026-05-07 05:05 | 25.87784 | -80.21939 | 7618 ft | 300 kts | 269° |
| 2026-05-07 05:06 | 25.87712 | -80.24251 | 7256 ft | 299 kts | 268° |
| 2026-05-07 05:06 | 25.87633 | -80.26547 | 6913 ft | 297 kts | 268° |
| 2026-05-07 05:06 | 25.87552 | -80.28820 | 6568 ft | 296 kts | 268° |
| 2026-05-07 05:06 | 25.87482 | -80.31100 | 6170 ft | 296 kts | 269° |
| 2026-05-07 05:07 | 25.87426 | -80.33374 | 5836 ft | 292 kts | 269° |
| 2026-05-07 05:07 | 25.87352 | -80.35604 | 5588 ft | 286 kts | 268° |
| 2026-05-07 05:07 | 25.87255 | -80.37796 | 5286 ft | 283 kts | 268° |
| 2026-05-07 05:07 | 25.87137 | -80.39960 | 4977 ft | 280 kts | 267° |
| 2026-05-07 05:08 | 25.87004 | -80.42102 | 4661 ft | 277 kts | 267° |
| 2026-05-07 05:08 | 25.86861 | -80.44200 | 4324 ft | 275 kts | 266° |
| 2026-05-07 05:08 | 25.86725 | -80.46311 | 3971 ft | 274 kts | 266° |
| 2026-05-07 05:08 | 25.86602 | -80.48414 | 3688 ft | 270 kts | 266° |
| 2026-05-07 05:09 | 25.86494 | -80.50453 | 3570 ft | 259 kts | 266° |
| 2026-05-07 05:09 | 25.86365 | -80.52406 | 3448 ft | 248 kts | 259° |
| 2026-05-07 05:09 | 25.85677 | -80.54077 | 3326 ft | 234 kts | 226° |
| 2026-05-07 05:09 | 25.84372 | -80.55029 | 3133 ft | 222 kts | 193° |
| 2026-05-07 05:10 | 25.82850 | -80.55132 | 3026 ft | 220 kts | 175° |
| 2026-05-07 05:10 | 25.81370 | -80.54792 | 3014 ft | 219 kts | 152° |
| 2026-05-07 05:10 | 25.80159 | -80.53781 | 3015 ft | 219 kts | 130° |
| 2026-05-07 05:10 | 25.79397 | -80.52340 | 3012 ft | 217 kts | 108° |
| 2026-05-07 05:11 | 25.79194 | -80.50696 | 3008 ft | 217 kts | 88° |
| 2026-05-07 05:11 | 25.79268 | -80.49025 | 3032 ft | 218 kts | 88° |
| 2026-05-07 05:11 | 25.79343 | -80.47352 | 2901 ft | 213 kts | 88° |
| 2026-05-07 05:11 | 25.79413 | -80.45741 | 2667 ft | 206 kts | 88° |
| 2026-05-07 05:12 | 25.79480 | -80.44180 | 2414 ft | 199 kts | 89° |
| 2026-05-07 05:12 | 25.79544 | -80.42662 | 2162 ft | 195 kts | 89° |
| 2026-05-07 05:12 | 25.79606 | -80.41186 | 1932 ft | 187 kts | 89° |
| 2026-05-07 05:12 | 25.79666 | -80.39787 | 1684 ft | 177 kts | 89° |
| 2026-05-07 05:13 | 25.79721 | -80.38466 | 1453 ft | 172 kts | 89° |
| 2026-05-07 05:13 | 25.79777 | -80.37149 | 1247 ft | 171 kts | 89° |
| 2026-05-07 05:13 | 25.79832 | -80.35863 | 1029 ft | 156 kts | 89° |
| 2026-05-07 05:13 | 25.79879 | -80.34733 | 833 ft | 140 kts | 88° |
| 2026-05-07 05:14 | 25.79924 | -80.33660 | 660 ft | 135 kts | 88° |
| 2026-05-07 05:14 | 25.79966 | -80.32637 | 491 ft | 134 kts | 88° |
| 2026-05-07 05:14 | 25.80008 | -80.31603 | 330 ft | 134 kts | 88° |
| 2026-05-07 05:14 | 25.80051 | -80.30573 | 190 ft | 134 kts | 88° |
| 2026-05-07 05:15 | 25.80094 | -80.29539 | 39 ft | 133 kts | 88° |
| 2026-05-07 05:15 | 25.80135 | -80.28604 | 17 ft | 102 kts | 88° |
| 2026-05-07 05:15 | 25.80159 | -80.28017 | 14 ft | 47 kts | 87° |
| 2026-05-07 05:15 | 25.80169 | -80.27736 | 14 ft | 30 kts | 90° |
| 2026-05-07 05:16 | 25.80149 | -80.27584 | 16 ft | 16 kts | 113° |
| 2026-05-07 05:16 | 25.80096 | -80.27516 | 17 ft | 11 kts | 148° |
| 2026-05-07 05:16 | 25.80019 | -80.27498 | 15 ft | 11 kts | 187° |
| 2026-05-07 05:16 | 25.79984 | -80.27571 | 15 ft | 13 kts | 267° |
| 2026-05-07 05:17 | 25.79983 | -80.27598 | 15 ft | 0 kts | 267° |
| 2026-05-07 05:17 | 25.79983 | -80.27599 | 15 ft | 1 kts | 267° |
| 2026-05-07 05:18 | 25.79980 | -80.27647 | 15 ft | 9 kts | 266° |
| 2026-05-07 05:18 | 25.79938 | -80.27653 | 15 ft | 8 kts | 161° |
| 2026-05-07 05:18 | 25.79914 | -80.27648 | 15 ft | 3 kts | 189° |
| 2026-05-07 05:18 | 25.79891 | -80.27685 | 15 ft | 10 kts | 262° |
| 2026-05-07 05:19 | 25.79886 | -80.27792 | 15 ft | 17 kts | 267° |
| 2026-05-07 05:19 | 25.79880 | -80.27932 | 15 ft | 19 kts | 267° |
| 2026-05-07 05:19 | 25.79896 | -80.28043 | 17 ft | 14 kts | 279° |
| 2026-05-07 05:19 | 25.79894 | -80.28164 | 15 ft | 17 kts | 267° |
| 2026-05-07 05:20 | 25.79890 | -80.28246 | 15 ft | 12 kts | 267° |
| 2026-05-07 05:20 | 25.79885 | -80.28315 | 15 ft | 3 kts | 243° |
| 2026-05-07 05:20 | 25.79855 | -80.28322 | 15 ft | 6 kts | 181° |
| 2026-05-07 05:20 | 25.79837 | -80.28322 | 15 ft | 1 kts | 178° |
| 2026-05-07 05:21 | 25.79827 | -80.28321 | 15 ft | 1 kts | 178° |
| 2026-05-07 05:21 | 25.79824 | -80.28321 | 15 ft | 0 kts | 178° |